Time;durP1;ratioP1;P1;durP2;ratioP2;P2;SDS_P1;SDS_P2;PMS_P1;PMS_P2;Temp;Humidity;BMP_temperature;BMP_pressure;BME280_temperature;BME280_humidity;BME280_pressure;Samples;Min_cycle;Max_cycle;Signal;HPM_P1;HPM_P2
2022/07/25 00:00:13;;;;;;;15.87;14.53;;;22.70;99.90;;;;;;5115213;28;20454;-86
2022/07/25 00:02:40;;;;;;;15.50;14.10;;;22.70;99.90;;;;;;5115288;28;20462;-86
2022/07/25 00:05:08;;;;;;;15.07;13.87;;;22.60;99.90;;;;;;5115282;28;20446;-86
2022/07/25 00:07:35;;;;;;;14.37;13.17;;;22.60;99.90;;;;;;5115035;28;20453;-86
2022/07/25 00:10:02;;;;;;;15.27;14.00;;;22.60;99.90;;;;;;5114734;28;20484;-86
2022/07/25 00:12:29;;;;;;;15.63;14.33;;;22.50;99.90;;;;;;5115046;28;20451;-86
2022/07/25 00:14:55;;;;;;;14.83;13.63;;;22.50;99.90;;;;;;5114968;28;20449;-86
2022/07/25 00:17:24;;;;;;;14.90;13.63;;;22.50;99.90;;;;;;5113451;28;20476;-86
2022/07/25 00:19:50;;;;;;;14.27;13.03;;;22.50;99.90;;;;;;5114932;28;20542;-86
2022/07/25 00:22:17;;;;;;;14.73;13.30;;;22.40;99.90;;;;;;5114623;28;20957;-86
2022/07/25 00:24:44;;;;;;;15.83;14.00;;;22.40;99.90;;;;;;5114918;28;20817;-86
2022/07/25 00:27:11;;;;;;;15.07;13.70;;;22.40;99.90;;;;;;5114590;28;20812;-86
2022/07/25 00:29:38;;;;;;;14.20;13.17;;;22.40;99.90;;;;;;5114647;28;20453;-86
2022/07/25 00:32:05;;;;;;;14.80;13.60;;;22.30;99.90;;;;;;5114626;28;21044;-86
2022/07/25 00:34:33;;;;;;;15.00;13.73;;;22.20;99.90;;;;;;5114387;28;20458;-86
2022/07/25 00:37:00;;;;;;;14.13;13.03;;;22.20;99.90;;;;;;5114332;28;20831;-86
2022/07/25 00:39:27;;;;;;;15.03;13.67;;;22.20;99.90;;;;;;5114288;28;20975;-86
2022/07/25 00:41:54;;;;;;;15.50;14.00;;;22.20;99.90;;;;;;5114489;28;20446;-86
2022/07/25 00:44:25;;;;;;;14.37;13.27;;;22.20;99.90;;;;;;5114577;28;20457;-86
2022/07/25 00:46:52;;;;;;;13.83;12.73;;;22.10;99.90;;;;;;5120385;28;20969;-86
2022/07/25 00:49:19;;;;;;;14.47;13.37;;;22.00;99.90;;;;;;5118162;28;20449;-86
2022/07/25 00:51:48;;;;;;;15.60;14.10;;;22.00;99.90;;;;;;5114085;28;20490;-86
2022/07/25 00:54:15;;;;;;;15.50;14.17;;;22.00;99.90;;;;;;5114075;28;20449;-86
2022/07/25 00:56:42;;;;;;;16.17;14.87;;;22.00;99.90;;;;;;5113991;28;20477;-86
2022/07/25 00:59:09;;;;;;;14.00;12.90;;;22.00;99.90;;;;;;5114131;28;20449;-86
2022/07/25 01:01:37;;;;;;;15.27;14.07;;;22.00;99.90;;;;;;5114225;28;20465;-86
2022/07/25 01:04:05;;;;;;;14.10;12.87;;;22.00;99.90;;;;;;5113718;28;20490;-86
2022/07/25 01:06:32;;;;;;;15.47;14.27;;;21.90;99.90;;;;;;5113711;28;20477;-86
2022/07/25 01:09:01;;;;;;;16.30;15.00;;;21.90;99.90;;;;;;5113641;28;20454;-86
2022/07/25 01:11:28;;;;;;;16.00;14.60;;;21.80;99.90;;;;;;5113681;28;20493;-86
2022/07/25 01:13:55;;;;;;;15.50;14.10;;;21.80;99.90;;;;;;5113653;28;20958;-86
2022/07/25 01:16:22;;;;;;;14.77;13.57;;;21.80;99.90;;;;;;5113126;28;20469;-87
2022/07/25 01:18:48;;;;;;;15.23;13.93;;;21.80;99.90;;;;;;5113639;28;20453;-86
2022/07/25 01:21:16;;;;;;;14.67;13.47;;;21.80;99.90;;;;;;5113858;28;20449;-86
2022/07/25 01:23:43;;;;;;;16.50;15.10;;;21.80;99.90;;;;;;5113363;28;20449;-86
2022/07/25 01:26:10;;;;;;;15.93;14.73;;;21.80;99.90;;;;;;5113053;28;21068;-86
2022/07/25 01:28:37;;;;;;;14.90;13.37;;;21.80;99.90;;;;;;5113379;28;20452;-86
2022/07/25 01:31:04;;;;;;;14.60;13.40;;;21.80;99.90;;;;;;5113282;28;20847;-86
2022/07/25 01:33:31;;;;;;;15.50;14.00;;;21.70;99.90;;;;;;5113060;28;20456;-87
2022/07/25 01:35:58;;;;;;;15.97;14.57;;;21.70;99.90;;;;;;5113033;28;20836;-86
2022/07/25 01:38:26;;;;;;;14.57;13.37;;;21.70;99.90;;;;;;5113349;28;20445;-86
2022/07/25 01:40:53;;;;;;;15.33;13.90;;;21.70;99.90;;;;;;5113302;28;20453;-86
2022/07/25 01:43:20;;;;;;;16.50;14.90;;;21.60;99.90;;;;;;5113171;28;20454;-86
2022/07/25 01:45:47;;;;;;;15.00;13.70;;;21.60;99.90;;;;;;5112706;28;20481;-86
2022/07/25 01:48:13;;;;;;;14.80;13.60;;;21.50;99.90;;;;;;5112939;28;20441;-87
2022/07/25 01:50:40;;;;;;;13.47;12.37;;;21.50;99.90;;;;;;5113039;28;20514;-86
2022/07/25 01:53:07;;;;;;;15.20;13.80;;;21.40;99.90;;;;;;5113066;28;20449;-86
2022/07/25 01:55:35;;;;;;;13.67;12.50;;;21.40;99.90;;;;;;5126848;28;20470;-86
2022/07/25 01:58:02;;;;;;;12.80;11.80;;;21.40;99.90;;;;;;5130048;28;20792;-86
2022/07/25 02:00:29;;;;;;;13.90;12.70;;;21.40;99.90;;;;;;5112817;28;20959;-86
2022/07/25 02:05:36;;;;;;;14.17;12.97;;;21.40;99.90;;;;;;5111533;28;20974;-86
2022/07/25 02:08:03;;;;;;;14.43;13.23;;;21.40;99.90;;;;;;5113010;28;20445;-86
2022/07/25 02:10:30;;;;;;;14.03;12.83;;;21.40;99.90;;;;;;5112769;28;20829;-86
2022/07/25 02:12:58;;;;;;;14.87;13.50;;;21.40;99.90;;;;;;5112727;28;20469;-86
2022/07/25 02:15:25;;;;;;;14.90;13.70;;;21.40;99.90;;;;;;5112458;28;20470;-86
2022/07/25 02:17:52;;;;;;;14.77;13.57;;;21.40;99.90;;;;;;5112725;28;20821;-86
2022/07/25 02:20:19;;;;;;;14.50;13.17;;;21.30;99.90;;;;;;5112337;28;20461;-86
2022/07/25 02:22:45;;;;;;;14.67;13.40;;;21.30;99.90;;;;;;5112630;28;20467;-86
2022/07/25 02:25:12;;;;;;;13.90;12.70;;;21.30;99.90;;;;;;5112715;28;20450;-86
2022/07/25 02:27:39;;;;;;;14.27;13.13;;;21.30;99.90;;;;;;5112348;28;20453;-86
2022/07/25 02:30:09;;;;;;;13.87;12.77;;;21.20;99.90;;;;;;5112249;28;20463;-86
2022/07/25 02:32:36;;;;;;;13.20;12.00;;;21.20;99.90;;;;;;5112649;28;20494;-86
2022/07/25 02:35:03;;;;;;;14.50;13.30;;;21.20;99.90;;;;;;5112473;28;20463;-86
2022/07/25 02:37:30;;;;;;;12.90;11.90;;;21.20;99.90;;;;;;5112269;28;20469;-86
2022/07/25 02:39:56;;;;;;;12.77;11.77;;;21.20;99.90;;;;;;5112217;28;20961;-86
2022/07/25 02:42:23;;;;;;;13.47;12.37;;;21.20;99.90;;;;;;5116612;28;20449;-86
2022/07/25 02:44:50;;;;;;;14.30;13.10;;;21.20;99.90;;;;;;5116700;28;20449;-86
2022/07/25 02:47:18;;;;;;;13.70;12.67;;;21.20;99.90;;;;;;5116059;28;20487;-86
2022/07/25 02:49:45;;;;;;;14.70;13.50;;;21.20;99.90;;;;;;5116625;28;20787;-87
2022/07/25 02:52:11;;;;;;;14.40;13.30;;;21.10;99.90;;;;;;5116571;28;20511;-86
2022/07/25 02:54:38;;;;;;;13.50;12.47;;;21.10;99.90;;;;;;5116576;28;20850;-87
2022/07/25 02:57:05;;;;;;;13.30;12.20;;;21.10;99.90;;;;;;5116258;28;20843;-86
2022/07/25 02:59:32;;;;;;;14.63;13.53;;;21.10;99.90;;;;;;5116423;28;20453;-86
2022/07/25 03:01:58;;;;;;;16.80;15.30;;;21.10;99.90;;;;;;5116559;28;20450;-86
2022/07/25 03:04:26;;;;;;;14.90;13.70;;;21.10;99.90;;;;;;5116256;28;20459;-86
2022/07/25 03:06:53;;;;;;;14.40;13.20;;;21.10;99.90;;;;;;5116078;28;20482;-86
2022/07/25 03:09:20;;;;;;;14.37;13.27;;;21.00;99.90;;;;;;5115952;28;20970;-86
2022/07/25 03:11:49;;;;;;;14.80;13.60;;;21.00;99.90;;;;;;5116209;28;20481;-86
2022/07/25 03:14:16;;;;;;;15.20;13.90;;;21.00;99.90;;;;;;5116170;28;20803;-86
2022/07/25 03:16:42;;;;;;;15.43;14.07;;;20.90;99.90;;;;;;5115872;28;21044;-86
2022/07/25 03:19:11;;;;;;;15.47;14.17;;;20.90;99.90;;;;;;5116011;28;20800;-86
2022/07/25 03:21:40;;;;;;;13.83;12.73;;;20.80;99.90;;;;;;5116073;28;20466;-86
2022/07/25 03:24:07;;;;;;;14.83;13.53;;;20.80;99.90;;;;;;5115884;28;20543;-86
2022/07/25 03:26:33;;;;;;;15.33;13.83;;;20.80;99.90;;;;;;5115668;28;20467;-86
2022/07/25 03:29:00;;;;;;;15.30;14.10;;;20.70;99.90;;;;;;5115862;28;20460;-86
2022/07/25 03:31:27;;;;;;;13.73;12.73;;;20.70;99.90;;;;;;5115810;28;20539;-86
2022/07/25 03:33:54;;;;;;;16.10;14.60;;;20.70;99.90;;;;;;5115793;28;20456;-86
2022/07/25 03:36:20;;;;;;;15.73;14.27;;;20.70;99.90;;;;;;5121228;28;20482;-86
2022/07/25 03:38:49;;;;;;;15.17;13.93;;;20.70;99.90;;;;;;5122952;28;20462;-85
2022/07/25 03:41:15;;;;;;;15.60;14.30;;;20.70;99.90;;;;;;5117833;28;20530;-86
2022/07/25 03:43:42;;;;;;;14.67;13.47;;;20.70;99.90;;;;;;5118087;28;20437;-86
2022/07/25 03:46:09;;;;;;;15.73;14.37;;;20.70;99.90;;;;;;5118171;28;20473;-86
2022/07/25 03:48:36;;;;;;;13.53;12.33;;;20.70;99.90;;;;;;5115967;28;20448;-86
2022/07/25 03:51:03;;;;;;;16.03;14.53;;;20.60;99.90;;;;;;5125708;28;20487;-86
2022/07/25 03:53:30;;;;;;;14.30;13.10;;;20.60;99.90;;;;;;5131339;28;20452;-86
2022/07/25 03:55:58;;;;;;;14.73;13.20;;;20.60;99.90;;;;;;5122540;28;20568;-86
2022/07/25 03:58:24;;;;;;;15.90;14.70;;;20.60;99.90;;;;;;5116025;28;20827;-86
2022/07/25 04:00:51;;;;;;;14.07;13.07;;;20.60;99.90;;;;;;5120458;28;20967;-86
2022/07/25 04:03:18;;;;;;;15.07;13.77;;;20.60;99.90;;;;;;5130661;28;20441;-86
2022/07/25 04:05:45;;;;;;;14.03;12.80;;;20.60;99.90;;;;;;5132490;28;20467;-87
2022/07/25 04:08:11;;;;;;;15.50;14.20;;;20.60;99.90;;;;;;5132823;28;20454;-86
2022/07/25 04:10:39;;;;;;;14.20;13.00;;;20.60;99.90;;;;;;5119296;28;20458;-86
2022/07/25 04:13:07;;;;;;;16.23;14.63;;;20.70;99.90;;;;;;5115132;28;20483;-86
2022/07/25 04:15:34;;;;;;;14.33;13.13;;;20.70;99.90;;;;;;5114835;28;20459;-86
2022/07/25 04:18:01;;;;;;;14.80;13.50;;;20.70;99.90;;;;;;5115089;28;20456;-86
2022/07/25 04:20:27;;;;;;;14.93;13.43;;;20.70;99.90;;;;;;5114964;28;20455;-86
2022/07/25 04:22:54;;;;;;;14.93;13.53;;;20.70;99.90;;;;;;5115262;28;20459;-86
2022/07/25 04:25:21;;;;;;;14.97;13.67;;;20.70;99.90;;;;;;5114647;28;20459;-86
2022/07/25 04:27:48;;;;;;;16.83;15.30;;;20.70;99.90;;;;;;5114624;28;20440;-85
2022/07/25 04:30:16;;;;;;;13.80;12.60;;;20.70;99.90;;;;;;5114678;28;20471;-85
2022/07/25 04:32:43;;;;;;;15.70;14.30;;;20.70;99.90;;;;;;5114402;28;20494;-85
2022/07/25 04:35:09;;;;;;;15.73;14.23;;;20.70;99.90;;;;;;5114527;28;20466;-85
2022/07/25 04:37:36;;;;;;;15.37;14.07;;;20.80;99.90;;;;;;5114244;28;20940;-85
2022/07/25 04:40:04;;;;;;;15.67;14.27;;;20.80;99.90;;;;;;5114314;28;20451;-85
2022/07/25 04:42:31;;;;;;;16.53;15.13;;;20.80;99.90;;;;;;5114383;28;20903;-86
2022/07/25 04:44:58;;;;;;;14.40;13.23;;;20.80;99.90;;;;;;5114477;28;20457;-86
2022/07/25 04:47:26;;;;;;;15.60;14.30;;;20.80;99.90;;;;;;5114013;28;20488;-85
2022/07/25 04:49:52;;;;;;;14.10;12.87;;;20.90;99.90;;;;;;5114265;28;20459;-85
2022/07/25 04:52:19;;;;;;;15.40;14.03;;;20.90;99.90;;;;;;5114145;28;20525;-86
2022/07/25 04:54:46;;;;;;;15.27;13.97;;;20.90;99.90;;;;;;5114188;28;20443;-86
2022/07/25 04:57:12;;;;;;;16.40;14.90;;;21.00;99.90;;;;;;5113989;28;20466;-86
2022/07/25 04:59:39;;;;;;;15.67;14.37;;;21.00;99.90;;;;;;5114038;28;20459;-86
2022/07/25 05:02:06;;;;;;;16.07;14.40;;;21.00;99.90;;;;;;5113988;28;20455;-85
2022/07/25 05:04:35;;;;;;;15.43;14.20;;;21.10;99.90;;;;;;5113325;28;20547;-85
2022/07/25 05:07:01;;;;;;;14.73;13.23;;;21.20;99.90;;;;;;5113372;28;20476;-85
2022/07/25 05:09:29;;;;;;;13.90;12.63;;;21.20;99.90;;;;;;5113845;28;20490;-85
2022/07/25 05:11:56;;;;;;;13.50;12.27;;;21.20;99.90;;;;;;5113757;28;20575;-86
2022/07/25 05:14:22;;;;;;;14.93;13.70;;;21.30;99.90;;;;;;5113570;28;20446;-86
2022/07/25 05:16:49;;;;;;;13.90;12.70;;;21.40;99.90;;;;;;5113624;28;20476;-85
2022/07/25 05:19:16;;;;;;;13.50;12.40;;;21.50;99.90;;;;;;5113778;28;20495;-86
2022/07/25 05:21:44;;;;;;;14.47;13.10;;;21.60;99.90;;;;;;5113592;28;20450;-85
2022/07/25 05:24:11;;;;;;;15.37;13.87;;;21.70;99.90;;;;;;5113774;28;20446;-86
2022/07/25 05:26:38;;;;;;;13.33;12.33;;;21.80;99.90;;;;;;5118700;28;20473;-85
2022/07/25 05:35:35;;;;;;;12.90;11.90;;;22.10;99.90;;;;;;5092932;28;20416;-86
2022/07/25 05:38:04;;;;;;;13.33;12.33;;;22.10;99.90;;;;;;5104107;28;20448;-85
2022/07/25 05:40:31;;;;;;;13.50;12.43;;;22.20;99.90;;;;;;5113089;28;20460;-86
2022/07/25 05:42:57;;;;;;;13.73;12.40;;;22.30;99.90;;;;;;5113081;28;20453;-86
2022/07/25 05:47:53;;;;;;;13.67;12.60;;;22.50;99.90;;;;;;5116645;22;20955;-81
2022/07/25 05:50:20;;;;;;;14.13;13.00;;;22.50;99.90;;;;;;5098124;28;20461;-80
2022/07/25 05:52:47;;;;;;;14.50;13.23;;;22.70;99.90;;;;;;5097276;28;20518;-81
2022/07/25 05:55:19;;;;;;;13.83;12.73;;;22.70;99.90;;;;;;5097389;28;20546;-81
2022/07/25 05:57:47;;;;;;;14.30;13.13;;;22.70;99.90;;;;;;5089332;28;20558;-80
2022/07/25 06:00:16;;;;;;;14.03;12.83;;;22.80;99.90;;;;;;5098116;28;20479;-80
2022/07/25 06:02:44;;;;;;;12.77;11.77;;;23.00;99.90;;;;;;5060144;28;20535;-80
2022/07/25 06:05:12;;;;;;;11.83;10.93;;;23.00;99.90;;;;;;5078080;28;20510;-81
2022/07/25 06:07:40;;;;;;;12.83;11.83;;;23.10;99.90;;;;;;5077405;28;20712;-80
2022/07/25 06:10:07;;;;;;;11.80;10.80;;;23.20;99.90;;;;;;5077854;28;20873;-79
2022/07/25 06:12:35;;;;;;;12.37;11.47;;;23.20;99.90;;;;;;5077146;28;20476;-81
2022/07/25 06:15:02;;;;;;;11.50;10.60;;;23.30;99.90;;;;;;5075457;28;20535;-81
2022/07/25 06:17:28;;;;;;;13.83;12.73;;;23.40;99.90;;;;;;5076174;28;20480;-81
2022/07/25 06:19:55;;;;;;;12.20;11.20;;;23.40;99.90;;;;;;5076783;28;20465;-81
2022/07/25 06:22:22;;;;;;;12.37;11.33;;;23.50;99.90;;;;;;5084553;28;20452;-80
2022/07/25 06:24:49;;;;;;;13.53;12.30;;;23.70;99.90;;;;;;5076301;28;20527;-80
2022/07/25 06:27:16;;;;;;;11.93;11.00;;;23.80;99.90;;;;;;5076037;28;20554;-81
2022/07/25 06:29:44;;;;;;;12.43;11.33;;;24.00;99.90;;;;;;5077063;28;20452;-78
2022/07/25 06:32:11;;;;;;;12.57;11.30;;;24.10;99.90;;;;;;5077126;28;20472;-81
2022/07/25 06:34:38;;;;;;;13.23;12.20;;;24.20;99.90;;;;;;5076806;28;20458;-81
2022/07/25 06:37:05;;;;;;;11.43;10.63;;;24.30;99.90;;;;;;5092462;28;20522;-81
2022/07/25 06:39:31;;;;;;;12.60;11.47;;;24.40;99.60;;;;;;5081872;28;21018;-78
2022/07/25 06:41:59;;;;;;;12.43;11.53;;;24.50;99.30;;;;;;5083500;28;20483;-78
2022/07/25 06:44:26;;;;;;;13.93;11.77;;;24.40;98.80;;;;;;5083551;28;20441;-81
2022/07/25 06:46:54;;;;;;;13.03;12.13;;;24.40;99.00;;;;;;5100004;28;20568;-80
2022/07/25 06:49:21;;;;;;;11.47;10.50;;;24.60;99.10;;;;;;5083069;28;20461;-77
2022/07/25 06:51:48;;;;;;;11.80;10.80;;;24.60;99.00;;;;;;5082664;28;20545;-81
2022/07/25 06:54:17;;;;;;;12.03;11.03;;;24.80;98.60;;;;;;5096486;28;20937;-80
2022/07/25 06:56:44;;;;;;;12.17;11.37;;;24.90;98.30;;;;;;5088074;28;20531;-79
2022/07/25 06:59:11;;;;;;;12.23;11.13;;;25.00;98.00;;;;;;5068168;28;20445;-81
2022/07/25 07:01:38;;;;;;;11.17;10.37;;;25.00;97.70;;;;;;5065675;28;20447;-81
2022/07/25 07:04:07;;;;;;;11.80;10.83;;;25.10;96.80;;;;;;5046704;28;20870;-80
2022/07/25 07:09:32;;;;;;;13.10;11.93;;;25.20;96.40;;;;;;5059086;28;20456;-80
2022/07/25 07:15:27;;;;;;;11.83;10.90;;;25.50;95.80;;;;;;5023426;28;20430;-81
2022/07/25 07:18:26;;;;;;;11.70;10.80;;;25.60;95.60;;;;;;5023437;28;20443;-81
2022/07/25 07:21:02;;;;;;;12.50;11.40;;;25.60;95.90;;;;;;5023272;28;20568;-81
2022/07/25 07:23:30;;;;;;;14.23;11.23;;;25.70;95.40;;;;;;5029522;28;20491;-81
2022/07/25 07:25:59;;;;;;;11.97;11.07;;;25.80;95.40;;;;;;5048882;28;20973;-80
2022/07/25 07:28:26;;;;;;;12.80;11.80;;;25.90;95.50;;;;;;5076337;28;20446;-81
2022/07/25 07:30:53;;;;;;;12.20;11.30;;;26.00;94.90;;;;;;5084035;28;20454;-81
2022/07/25 07:33:19;;;;;;;12.47;11.47;;;26.10;95.10;;;;;;5094684;28;20482;-81
2022/07/25 07:35:46;;;;;;;12.10;11.17;;;26.00;94.90;;;;;;5079209;28;20478;-80
2022/07/25 07:38:15;;;;;;;12.87;11.97;;;26.10;95.40;;;;;;5079969;28;20566;-81
2022/07/25 07:40:42;;;;;;;13.00;11.97;;;26.20;95.60;;;;;;5079618;28;20513;-81
2022/07/25 07:43:08;;;;;;;13.90;12.83;;;26.40;95.40;;;;;;5082330;28;20441;-80
2022/07/25 07:45:35;;;;;;;14.90;13.73;;;26.50;95.30;;;;;;5092966;28;20514;-81
2022/07/25 07:48:02;;;;;;;13.03;12.10;;;26.60;95.40;;;;;;5109031;28;20451;-83
2022/07/25 07:50:29;;;;;;;13.80;12.70;;;26.70;95.40;;;;;;5091095;28;20483;-83
2022/07/25 07:52:57;;;;;;;15.13;13.90;;;26.70;95.20;;;;;;5092508;28;20522;-83
2022/07/25 07:58:10;;;;;;;12.87;11.90;;;27.00;95.00;;;;;;5090849;28;20454;-82
2022/07/25 08:00:38;;;;;;;12.83;11.83;;;27.20;95.20;;;;;;5097784;28;20478;-84
2022/07/25 08:03:07;;;;;;;13.53;12.53;;;27.40;94.70;;;;;;5095722;28;20447;-83
2022/07/25 08:05:37;;;;;;;13.40;12.40;;;27.30;94.40;;;;;;5101276;28;21046;-82
2022/07/25 08:08:04;;;;;;;12.50;11.60;;;27.50;93.90;;;;;;5099207;28;20854;-82
2022/07/25 08:10:36;;;;;;;13.87;12.70;;;27.60;93.10;;;;;;5099766;28;20461;-82
2022/07/25 08:13:11;;;;;;;12.87;12.00;;;27.70;93.80;;;;;;5085254;28;20480;-82
2022/07/25 08:32:46;;;;;;;13.83;12.63;;;28.60;89.70;;;;;;5071372;28;21050;-84
2022/07/25 08:35:13;;;;;;;12.03;11.03;;;28.70;90.00;;;;;;5059704;28;20453;-83
2022/07/25 08:37:40;;;;;;;11.80;10.90;;;28.70;90.00;;;;;;5059017;28;20563;-83
2022/07/25 08:40:07;;;;;;;11.60;10.63;;;28.90;86.00;;;;;;5060323;28;20450;-84
2022/07/25 08:42:34;;;;;;;11.20;10.40;;;29.10;84.80;;;;;;5083040;28;20477;-81
2022/07/25 08:45:05;;;;;;;12.07;11.07;;;29.20;82.30;;;;;;5078107;28;20832;-83
2022/07/25 09:01:01;;;;;;;11.87;10.87;;;29.90;80.30;;;;;;5098394;28;20402;-81
2022/07/25 09:03:28;;;;;;;12.63;11.63;;;29.90;79.00;;;;;;5098949;28;20453;-82
2022/07/25 09:05:55;;;;;;;13.07;12.07;;;30.10;78.90;;;;;;5098878;28;20467;-82
2022/07/25 09:08:21;;;;;;;11.40;10.50;;;30.10;77.70;;;;;;5099100;28;20457;-81
2022/07/25 09:10:49;;;;;;;11.67;10.77;;;30.20;75.00;;;;;;5099063;28;20446;-82
2022/07/25 09:13:17;;;;;;;11.80;10.90;;;30.20;75.20;;;;;;5099237;28;20999;-82
2022/07/25 09:15:46;;;;;;;11.57;10.67;;;30.10;75.80;;;;;;5098605;28;20453;-82
2022/07/25 09:18:16;;;;;;;12.23;11.37;;;30.30;74.80;;;;;;5099366;28;20447;-82
2022/07/25 09:20:45;;;;;;;12.53;11.57;;;30.40;74.70;;;;;;5098785;28;20543;-82
2022/07/25 09:23:14;;;;;;;12.00;11.20;;;30.50;73.70;;;;;;5098798;28;20536;-82
2022/07/25 09:25:42;;;;;;;11.13;10.33;;;30.60;74.00;;;;;;5098964;28;20456;-82
2022/07/25 09:28:14;;;;;;;11.90;11.00;;;30.80;72.30;;;;;;5099082;28;20962;-82
2022/07/25 09:30:53;;;;;;;12.63;11.57;;;30.90;71.60;;;;;;5098577;28;20507;-82
2022/07/25 09:33:22;;;;;;;12.53;11.53;;;31.00;69.40;;;;;;5099149;28;20527;-81
2022/07/25 09:35:50;;;;;;;10.77;10.03;;;31.10;68.20;;;;;;5103942;28;20463;-82
2022/07/25 09:38:18;;;;;;;11.60;10.80;;;31.20;66.30;;;;;;5102957;28;20463;-79
2022/07/25 09:40:55;;;;;;;10.87;10.10;;;31.30;66.00;;;;;;5101343;28;20449;-82
2022/07/25 09:43:23;;;;;;;11.20;10.37;;;31.30;63.20;;;;;;5102021;28;20446;-80
2022/07/25 09:45:51;;;;;;;11.03;10.00;;;31.30;64.30;;;;;;5101937;28;20482;-79
2022/07/25 09:48:19;;;;;;;11.80;10.90;;;31.40;64.30;;;;;;5100888;28;20466;-79
2022/07/25 09:50:47;;;;;;;12.93;11.83;;;31.50;65.80;;;;;;5099414;28;20452;-80
2022/07/25 09:53:14;;;;;;;12.17;11.20;;;31.80;64.90;;;;;;5101744;28;20482;-79
2022/07/25 09:55:41;;;;;;;11.37;10.57;;;31.90;63.30;;;;;;5102021;28;20453;-82
2022/07/25 09:58:08;;;;;;;10.90;10.10;;;32.00;62.70;;;;;;5101612;28;20472;-80
2022/07/25 10:00:35;;;;;;;13.13;12.20;;;32.00;63.10;;;;;;5102466;28;20458;-81
2022/07/25 10:03:16;;;;;;;12.17;11.20;;;32.10;63.50;;;;;;5102350;28;20565;-80
2022/07/25 10:05:56;;;;;;;12.07;11.17;;;32.10;62.20;;;;;;5102943;28;20454;-82
2022/07/25 10:08:24;;;;;;;13.33;12.33;;;32.20;62.00;;;;;;5101188;28;20438;-82
2022/07/25 10:10:52;;;;;;;11.40;10.40;;;32.40;63.30;;;;;;5101547;28;20480;-79
2022/07/25 10:13:31;;;;;;;11.57;10.77;;;32.70;63.50;;;;;;5102653;28;20482;-80
2022/07/25 10:15:58;;;;;;;13.00;12.07;;;32.70;60.00;;;;;;5100057;28;20505;-83
2022/07/25 10:18:27;;;;;;;12.80;11.90;;;32.50;60.00;;;;;;5098025;28;20453;-83
2022/07/25 10:21:08;;;;;;;12.70;11.60;;;32.70;60.90;;;;;;5098328;28;20462;-81
2022/07/25 10:23:35;;;;;;;12.17;11.17;;;32.90;60.00;;;;;;5098338;28;20964;-82
2022/07/25 10:26:04;;;;;;;11.20;10.40;;;33.20;60.50;;;;;;5097087;28;20467;-82
2022/07/25 10:28:43;;;;;;;12.07;11.27;;;33.20;59.90;;;;;;5097205;28;21009;-79
2022/07/25 10:31:21;;;;;;;11.30;10.40;;;33.50;59.70;;;;;;5097500;28;20451;-81
2022/07/25 10:33:53;;;;;;;11.27;10.47;;;33.60;58.90;;;;;;5098135;28;20489;-80
2022/07/25 10:36:22;;;;;;;10.80;10.00;;;33.90;59.00;;;;;;5097648;28;21070;-80
2022/07/25 10:38:52;;;;;;;11.10;10.40;;;34.20;57.30;;;;;;5097886;28;20443;-78
2022/07/25 10:41:20;;;;;;;12.47;11.57;;;34.40;55.80;;;;;;5097945;28;20956;-81
2022/07/25 10:43:50;;;;;;;10.60;9.80;;;34.70;54.70;;;;;;5097625;28;20451;-80
2022/07/25 10:46:21;;;;;;;11.33;10.53;;;34.60;53.30;;;;;;5097210;28;20874;-79
2022/07/25 10:48:57;;;;;;;10.17;9.43;;;34.70;52.90;;;;;;5097633;28;20468;-80
2022/07/25 10:51:29;;;;;;;10.97;10.17;;;34.90;53.10;;;;;;5097152;28;20454;-80
2022/07/25 10:53:56;;;;;;;11.57;10.53;;;35.20;52.00;;;;;;5097448;28;20487;-80
2022/07/25 10:56:26;;;;;;;9.80;9.10;;;35.20;51.20;;;;;;5097205;28;20479;-80
2022/07/25 10:58:54;;;;;;;9.30;8.70;;;35.40;50.20;;;;;;5097127;28;20500;-80
2022/07/25 11:01:23;;;;;;;9.77;9.07;;;35.40;49.90;;;;;;5098171;28;20451;-83
2022/07/25 11:03:50;;;;;;;9.80;9.20;;;35.60;49.50;;;;;;5102057;28;20450;-82
2022/07/25 11:06:29;;;;;;;9.33;8.50;;;35.60;48.10;;;;;;5101193;28;20473;-83
2022/07/25 11:08:59;;;;;;;9.77;8.97;;;35.60;48.90;;;;;;5101696;28;20441;-82
2022/07/25 11:11:36;;;;;;;7.77;7.27;;;35.90;48.50;;;;;;5101460;28;20497;-80
2022/07/25 11:14:04;;;;;;;7.10;6.60;;;36.20;47.40;;;;;;5100849;28;20489;-80
2022/07/25 11:16:31;;;;;;;5.80;5.37;;;36.50;43.90;;;;;;5100227;28;20474;-81
2022/07/25 11:18:58;;;;;;;6.13;5.70;;;36.60;41.70;;;;;;5100928;28;20450;-80
2022/07/25 11:21:25;;;;;;;6.50;6.00;;;36.70;41.30;;;;;;5100915;28;20450;-80
2022/07/25 11:23:52;;;;;;;6.63;6.23;;;37.00;41.30;;;;;;5100591;28;20450;-80
2022/07/25 11:26:20;;;;;;;5.93;5.50;;;37.00;40.10;;;;;;5100109;28;20454;-81
2022/07/25 11:28:49;;;;;;;6.07;5.47;;;37.20;39.30;;;;;;5100863;28;20447;-80
2022/07/25 11:31:17;;;;;;;5.27;4.97;;;37.00;39.20;;;;;;5099491;28;20454;-81
2022/07/25 11:33:47;;;;;;;4.80;4.50;;;37.00;39.50;;;;;;5100405;28;20480;-80
2022/07/25 11:36:15;;;;;;;5.73;5.37;;;37.10;38.20;;;;;;5099792;28;20541;-79
2022/07/25 11:38:42;;;;;;;6.00;5.50;;;37.50;38.60;;;;;;5100611;28;20450;-80
2022/07/25 11:41:09;;;;;;;6.43;6.03;;;38.00;39.00;;;;;;5100388;28;20450;-79
2022/07/25 11:43:37;;;;;;;5.60;5.30;;;38.40;36.80;;;;;;5100381;28;20446;-80
2022/07/25 11:46:06;;;;;;;5.20;4.90;;;38.30;36.10;;;;;;5100468;28;20466;-81
2022/07/25 11:48:35;;;;;;;5.93;5.53;;;38.40;35.60;;;;;;5104145;28;20455;-81
2022/07/25 11:51:14;;;;;;;5.37;5.07;;;38.60;36.10;;;;;;5104640;28;20514;-81
2022/07/25 11:53:45;;;;;;;6.33;5.83;;;38.60;34.70;;;;;;5103946;28;21007;-82
2022/07/25 11:56:17;;;;;;;7.50;6.90;;;38.80;35.70;;;;;;5104079;28;21085;-80
2022/07/25 11:58:57;;;;;;;5.90;5.50;;;38.90;35.10;;;;;;5104220;28;20446;-79
2022/07/25 12:01:24;;;;;;;6.70;6.30;;;39.10;36.20;;;;;;5100800;28;20487;-79
2022/07/25 12:03:52;;;;;;;5.60;5.27;;;39.20;35.00;;;;;;5100116;28;20443;-80
2022/07/25 12:06:18;;;;;;;6.17;5.77;;;39.70;34.90;;;;;;5102660;28;20474;-81
2022/07/25 12:08:45;;;;;;;6.63;6.23;;;39.50;33.70;;;;;;5103510;28;20442;-81
2022/07/25 12:11:19;;;;;;;5.70;5.30;;;39.50;33.60;;;;;;5103742;28;20443;-82
2022/07/25 12:13:48;;;;;;;6.00;5.60;;;39.50;34.10;;;;;;5103379;28;21024;-80
2022/07/25 12:16:16;;;;;;;7.13;6.63;;;39.50;34.20;;;;;;5102739;28;20466;-81
2022/07/25 12:18:42;;;;;;;5.80;5.50;;;39.30;33.10;;;;;;5103259;28;20443;-81
2022/07/25 12:21:09;;;;;;;7.27;6.87;;;38.90;33.80;;;;;;5103393;28;20447;-81
2022/07/25 12:23:37;;;;;;;6.57;6.27;;;39.00;33.60;;;;;;5103013;28;20451;-80
2022/07/25 12:26:04;;;;;;;7.27;6.77;;;38.70;34.20;;;;;;5103671;28;20561;-82
2022/07/25 12:28:31;;;;;;;7.10;6.63;;;38.00;34.80;;;;;;5103169;28;20465;-82
2022/07/25 12:30:59;;;;;;;7.13;6.63;;;38.10;35.10;;;;;;5103393;28;20446;-82
2022/07/25 12:33:26;;;;;;;7.27;6.80;;;38.30;36.60;;;;;;5103546;28;20450;-82
2022/07/25 12:35:53;;;;;;;7.70;7.10;;;38.70;34.30;;;;;;5102929;28;20514;-81
2022/07/25 12:38:20;;;;;;;6.70;6.30;;;38.90;34.50;;;;;;5103726;28;20447;-82
2022/07/25 12:40:46;;;;;;;6.57;6.07;;;39.00;33.80;;;;;;5103436;28;20454;-82
2022/07/25 12:43:13;;;;;;;7.40;6.90;;;39.40;33.60;;;;;;5104055;28;20482;-82
2022/07/25 12:45:41;;;;;;;7.27;6.77;;;39.40;33.20;;;;;;5103191;28;20453;-82
2022/07/25 12:48:09;;;;;;;7.43;6.93;;;39.20;33.20;;;;;;5102809;28;20867;-81
2022/07/25 12:50:36;;;;;;;6.33;5.93;;;39.30;33.60;;;;;;5103078;28;20447;-82
2022/07/25 12:53:03;;;;;;;6.90;6.40;;;39.20;33.70;;;;;;5103238;28;20454;-82
2022/07/25 12:55:30;;;;;;;5.90;5.60;;;39.20;33.50;;;;;;5103543;28;20486;-82
2022/07/25 12:57:57;;;;;;;7.00;6.47;;;38.10;32.90;;;;;;5103889;28;20451;-82
2022/07/25 13:00:24;;;;;;;6.00;5.70;;;37.60;34.10;;;;;;5103738;28;20458;-80
2022/07/25 13:02:54;;;;;;;6.50;6.10;;;37.00;35.30;;;;;;5103631;28;20455;-82
2022/07/25 13:05:23;;;;;;;6.93;6.50;;;36.50;36.30;;;;;;5103978;28;20461;-82
2022/07/25 13:07:50;;;;;;;8.97;8.27;;;36.00;38.20;;;;;;5103918;28;20481;-81
2022/07/25 13:10:18;;;;;;;8.10;7.50;;;35.90;39.80;;;;;;5104301;28;20446;-82
2022/07/25 13:12:45;;;;;;;8.63;7.93;;;36.00;40.70;;;;;;5103874;28;20453;-82
2022/07/25 13:15:12;;;;;;;7.33;6.83;;;36.30;40.40;;;;;;5104229;28;20493;-82
2022/07/25 13:17:40;;;;;;;7.27;6.77;;;36.50;40.40;;;;;;5104088;28;20477;-82
2022/07/25 13:20:09;;;;;;;7.37;6.77;;;36.70;38.90;;;;;;5103590;28;20507;-82
2022/07/25 13:22:37;;;;;;;8.03;7.53;;;37.10;38.20;;;;;;5104147;28;20447;-80
2022/07/25 13:25:05;;;;;;;7.37;6.87;;;37.70;37.60;;;;;;5102669;28;20451;-80